sensor_id;sensor_type;location;lat;lon;timestamp;temperature;humidity
46440;DHT22;32138;50.966;6.968;2023-07-09T00:00:25;24.10;91.10
46440;DHT22;32138;50.966;6.968;2023-07-09T00:01:56;24.10;91.30
46440;DHT22;32138;50.966;6.968;2023-07-09T00:03:27;23.90;91.50
46440;DHT22;32138;50.966;6.968;2023-07-09T00:04:58;23.90;91.40
46440;DHT22;32138;50.966;6.968;2023-07-09T00:06:28;23.90;91.70
46440;DHT22;32138;50.966;6.968;2023-07-09T00:08:00;23.90;91.80
46440;DHT22;32138;50.966;6.968;2023-07-09T00:09:31;23.80;91.90
46440;DHT22;32138;50.966;6.968;2023-07-09T00:11:02;24.00;91.70
46440;DHT22;32138;50.966;6.968;2023-07-09T00:12:33;23.90;91.90
46440;DHT22;32138;50.966;6.968;2023-07-09T00:14:05;23.90;91.90
46440;DHT22;32138;50.966;6.968;2023-07-09T00:15:36;23.90;91.90
46440;DHT22;32138;50.966;6.968;2023-07-09T00:17:31;23.90;91.80
46440;DHT22;32138;50.966;6.968;2023-07-09T00:19:11;24.00;91.90
46440;DHT22;32138;50.966;6.968;2023-07-09T00:20:47;23.90;92.10
46440;DHT22;32138;50.966;6.968;2023-07-09T00:22:19;23.90;92.00
46440;DHT22;32138;50.966;6.968;2023-07-09T00:23:50;23.90;92.10
46440;DHT22;32138;50.966;6.968;2023-07-09T00:25:21;23.90;92.20
46440;DHT22;32138;50.966;6.968;2023-07-09T00:26:54;23.90;92.30
46440;DHT22;32138;50.966;6.968;2023-07-09T00:28:25;23.80;92.50
46440;DHT22;32138;50.966;6.968;2023-07-09T00:29:56;23.80;92.60
46440;DHT22;32138;50.966;6.968;2023-07-09T00:31:27;23.80;92.60
46440;DHT22;32138;50.966;6.968;2023-07-09T00:32:57;23.80;92.60
46440;DHT22;32138;50.966;6.968;2023-07-09T00:34:28;23.80;92.60
46440;DHT22;32138;50.966;6.968;2023-07-09T00:35:59;23.80;92.70
46440;DHT22;32138;50.966;6.968;2023-07-09T00:37:30;23.80;92.80
46440;DHT22;32138;50.966;6.968;2023-07-09T00:39:01;23.80;92.70
46440;DHT22;32138;50.966;6.968;2023-07-09T00:40:47;23.60;93.10
46440;DHT22;32138;50.966;6.968;2023-07-09T00:42:20;23.60;93.30
46440;DHT22;32138;50.966;6.968;2023-07-09T00:43:54;23.70;93.10
46440;DHT22;32138;50.966;6.968;2023-07-09T00:45:27;23.60;93.40
46440;DHT22;32138;50.966;6.968;2023-07-09T00:48:31;23.60;93.60
46440;DHT22;32138;50.966;6.968;2023-07-09T00:50:10;23.50;93.80
46440;DHT22;32138;50.966;6.968;2023-07-09T00:51:46;23.50;93.90
46440;DHT22;32138;50.966;6.968;2023-07-09T00:53:25;23.40;94.10
46440;DHT22;32138;50.966;6.968;2023-07-09T00:55:06;23.40;94.20
46440;DHT22;32138;50.966;6.968;2023-07-09T00:56:40;23.40;94.10
46440;DHT22;32138;50.966;6.968;2023-07-09T00:58:15;23.60;94.00
46440;DHT22;32138;50.966;6.968;2023-07-09T00:59:50;23.60;94.00
46440;DHT22;32138;50.966;6.968;2023-07-09T01:01:23;23.60;93.80
46440;DHT22;32138;50.966;6.968;2023-07-09T01:02:54;23.60;93.80
46440;DHT22;32138;50.966;6.968;2023-07-09T01:04:27;23.50;93.90
46440;DHT22;32138;50.966;6.968;2023-07-09T01:05:58;23.60;94.00
46440;DHT22;32138;50.966;6.968;2023-07-09T01:07:29;23.70;93.90
46440;DHT22;32138;50.966;6.968;2023-07-09T01:09:01;23.60;93.90
46440;DHT22;32138;50.966;6.968;2023-07-09T01:10:33;23.50;94.40
46440;DHT22;32138;50.966;6.968;2023-07-09T01:12:07;23.40;94.30
46440;DHT22;32138;50.966;6.968;2023-07-09T01:13:38;23.60;94.00
46440;DHT22;32138;50.966;6.968;2023-07-09T01:15:10;23.50;94.10
46440;DHT22;32138;50.966;6.968;2023-07-09T01:16:46;23.50;94.20
46440;DHT22;32138;50.966;6.968;2023-07-09T01:18:19;23.40;94.30
46440;DHT22;32138;50.966;6.968;2023-07-09T01:19:51;23.20;94.80
46440;DHT22;32138;50.966;6.968;2023-07-09T01:21:22;23.20;95.20
46440;DHT22;32138;50.966;6.968;2023-07-09T01:22:52;23.40;94.80
46440;DHT22;32138;50.966;6.968;2023-07-09T01:25:04;23.30;94.80
46440;DHT22;32138;50.966;6.968;2023-07-09T01:26:37;23.30;94.90
46440;DHT22;32138;50.966;6.968;2023-07-09T01:28:09;23.20;95.10
46440;DHT22;32138;50.966;6.968;2023-07-09T01:29:41;23.10;95.40
46440;DHT22;32138;50.966;6.968;2023-07-09T01:31:14;23.00;95.70
46440;DHT22;32138;50.966;6.968;2023-07-09T01:32:45;23.00;95.70
46440;DHT22;32138;50.966;6.968;2023-07-09T01:34:16;23.10;95.60
46440;DHT22;32138;50.966;6.968;2023-07-09T01:35:47;23.10;95.70
46440;DHT22;32138;50.966;6.968;2023-07-09T01:37:19;23.10;95.70
46440;DHT22;32138;50.966;6.968;2023-07-09T01:38:52;23.10;95.60
46440;DHT22;32138;50.966;6.968;2023-07-09T01:40:28;23.20;95.80
46440;DHT22;32138;50.966;6.968;2023-07-09T01:41:59;23.10;95.60
46440;DHT22;32138;50.966;6.968;2023-07-09T01:43:31;23.10;95.70
46440;DHT22;32138;50.966;6.968;2023-07-09T01:45:03;23.20;95.70
46440;DHT22;32138;50.966;6.968;2023-07-09T01:46:34;23.10;95.70
46440;DHT22;32138;50.966;6.968;2023-07-09T01:48:06;23.10;95.80
46440;DHT22;32138;50.966;6.968;2023-07-09T01:49:43;23.10;95.80
46440;DHT22;32138;50.966;6.968;2023-07-09T01:51:16;23.20;95.70
46440;DHT22;32138;50.966;6.968;2023-07-09T01:52:47;23.20;95.70
46440;DHT22;32138;50.966;6.968;2023-07-09T01:54:20;23.20;95.60
46440;DHT22;32138;50.966;6.968;2023-07-09T01:55:51;23.20;95.70
46440;DHT22;32138;50.966;6.968;2023-07-09T01:57:24;23.30;95.60
46440;DHT22;32138;50.966;6.968;2023-07-09T01:59:03;23.40;95.40
46440;DHT22;32138;50.966;6.968;2023-07-09T02:00:34;23.40;95.40
46440;DHT22;32138;50.966;6.968;2023-07-09T02:02:05;23.50;95.40
46440;DHT22;32138;50.966;6.968;2023-07-09T02:03:36;23.50;95.50
46440;DHT22;32138;50.966;6.968;2023-07-09T02:05:07;23.40;95.60
46440;DHT22;32138;50.966;6.968;2023-07-09T02:06:38;23.50;95.60
46440;DHT22;32138;50.966;6.968;2023-07-09T02:08:08;23.50;95.60
46440;DHT22;32138;50.966;6.968;2023-07-09T02:09:39;23.50;95.50
46440;DHT22;32138;50.966;6.968;2023-07-09T02:11:10;23.50;95.60
46440;DHT22;32138;50.966;6.968;2023-07-09T02:12:41;23.40;95.60
46440;DHT22;32138;50.966;6.968;2023-07-09T02:14:11;23.30;95.80
46440;DHT22;32138;50.966;6.968;2023-07-09T02:15:43;23.30;95.70
46440;DHT22;32138;50.966;6.968;2023-07-09T02:17:15;23.40;95.70
46440;DHT22;32138;50.966;6.968;2023-07-09T02:18:46;23.50;95.70
46440;DHT22;32138;50.966;6.968;2023-07-09T02:20:17;23.50;95.70
46440;DHT22;32138;50.966;6.968;2023-07-09T02:21:49;23.40;95.70
46440;DHT22;32138;50.966;6.968;2023-07-09T02:23:20;23.40;95.70
46440;DHT22;32138;50.966;6.968;2023-07-09T02:24:54;23.50;95.70
46440;DHT22;32138;50.966;6.968;2023-07-09T02:26:25;23.30;95.80
46440;DHT22;32138;50.966;6.968;2023-07-09T02:27:55;23.30;96.00
46440;DHT22;32138;50.966;6.968;2023-07-09T02:29:27;23.40;96.00
46440;DHT22;32138;50.966;6.968;2023-07-09T02:30:58;23.40;96.00
46440;DHT22;32138;50.966;6.968;2023-07-09T02:32:29;23.40;96.00
46440;DHT22;32138;50.966;6.968;2023-07-09T02:34:00;23.40;96.00
46440;DHT22;32138;50.966;6.968;2023-07-09T02:35:31;23.30;96.40
46440;DHT22;32138;50.966;6.968;2023-07-09T02:37:02;23.30;96.30
46440;DHT22;32138;50.966;6.968;2023-07-09T02:38:33;23.30;96.10
46440;DHT22;32138;50.966;6.968;2023-07-09T02:40:05;23.40;96.00
46440;DHT22;32138;50.966;6.968;2023-07-09T02:41:38;23.30;96.00
46440;DHT22;32138;50.966;6.968;2023-07-09T02:43:09;23.30;96.10
46440;DHT22;32138;50.966;6.968;2023-07-09T02:44:41;23.30;96.20
46440;DHT22;32138;50.966;6.968;2023-07-09T02:46:12;23.10;96.50
46440;DHT22;32138;50.966;6.968;2023-07-09T02:47:43;23.20;96.60
46440;DHT22;32138;50.966;6.968;2023-07-09T02:49:14;23.30;96.40
46440;DHT22;32138;50.966;6.968;2023-07-09T02:50:45;23.30;96.40
46440;DHT22;32138;50.966;6.968;2023-07-09T02:52:16;23.40;96.30
46440;DHT22;32138;50.966;6.968;2023-07-09T02:53:47;23.40;96.30
46440;DHT22;32138;50.966;6.968;2023-07-09T02:55:18;23.40;96.30
46440;DHT22;32138;50.966;6.968;2023-07-09T02:56:49;23.10;96.40
46440;DHT22;32138;50.966;6.968;2023-07-09T02:58:20;23.10;96.40
46440;DHT22;32138;50.966;6.968;2023-07-09T02:59:50;23.00;96.60
46440;DHT22;32138;50.966;6.968;2023-07-09T03:01:21;23.10;96.40
46440;DHT22;32138;50.966;6.968;2023-07-09T03:02:55;23.10;96.40
46440;DHT22;32138;50.966;6.968;2023-07-09T03:04:26;23.00;96.50
46440;DHT22;32138;50.966;6.968;2023-07-09T03:05:57;22.90;96.80
46440;DHT22;32138;50.966;6.968;2023-07-09T03:07:27;22.90;96.60
46440;DHT22;32138;50.966;6.968;2023-07-09T03:08:59;23.10;96.50
46440;DHT22;32138;50.966;6.968;2023-07-09T03:10:30;22.90;96.60
46440;DHT22;32138;50.966;6.968;2023-07-09T03:12:01;22.90;96.70
46440;DHT22;32138;50.966;6.968;2023-07-09T03:13:32;22.90;96.70
46440;DHT22;32138;50.966;6.968;2023-07-09T03:15:03;23.00;96.60
46440;DHT22;32138;50.966;6.968;2023-07-09T03:16:34;23.00;96.50
46440;DHT22;32138;50.966;6.968;2023-07-09T03:18:05;22.90;96.60
46440;DHT22;32138;50.966;6.968;2023-07-09T03:19:35;23.00;96.70
46440;DHT22;32138;50.966;6.968;2023-07-09T03:21:06;22.80;97.00
46440;DHT22;32138;50.966;6.968;2023-07-09T03:22:37;22.70;97.40
46440;DHT22;32138;50.966;6.968;2023-07-09T03:24:08;22.60;97.60
46440;DHT22;32138;50.966;6.968;2023-07-09T03:25:42;22.70;97.50
46440;DHT22;32138;50.966;6.968;2023-07-09T03:27:13;22.60;97.80
46440;DHT22;32138;50.966;6.968;2023-07-09T03:28:44;22.70;97.40
46440;DHT22;32138;50.966;6.968;2023-07-09T03:30:15;22.70;97.30
46440;DHT22;32138;50.966;6.968;2023-07-09T03:31:46;22.70;97.40
46440;DHT22;32138;50.966;6.968;2023-07-09T03:33:17;22.70;97.50
46440;DHT22;32138;50.966;6.968;2023-07-09T03:34:47;22.60;97.70
46440;DHT22;32138;50.966;6.968;2023-07-09T03:36:19;22.70;97.80
46440;DHT22;32138;50.966;6.968;2023-07-09T03:37:50;22.70;97.50
46440;DHT22;32138;50.966;6.968;2023-07-09T03:39:21;22.80;97.50
46440;DHT22;32138;50.966;6.968;2023-07-09T03:40:53;22.80;97.50
46440;DHT22;32138;50.966;6.968;2023-07-09T03:42:24;22.80;97.50
46440;DHT22;32138;50.966;6.968;2023-07-09T03:43:55;22.70;97.50
46440;DHT22;32138;50.966;6.968;2023-07-09T03:45:26;22.70;97.70
46440;DHT22;32138;50.966;6.968;2023-07-09T03:46:57;22.70;97.80
46440;DHT22;32138;50.966;6.968;2023-07-09T03:48:28;22.60;97.70
46440;DHT22;32138;50.966;6.968;2023-07-09T03:49:59;22.60;97.80
46440;DHT22;32138;50.966;6.968;2023-07-09T03:51:29;22.50;98.00
46440;DHT22;32138;50.966;6.968;2023-07-09T03:53:00;22.40;98.20
46440;DHT22;32138;50.966;6.968;2023-07-09T03:54:31;22.40;98.30
46440;DHT22;32138;50.966;6.968;2023-07-09T03:56:02;22.40;98.40
46440;DHT22;32138;50.966;6.968;2023-07-09T03:57:33;22.40;98.40
46440;DHT22;32138;50.966;6.968;2023-07-09T03:59:04;22.50;98.20
46440;DHT22;32138;50.966;6.968;2023-07-09T04:00:35;22.70;97.80
46440;DHT22;32138;50.966;6.968;2023-07-09T04:02:06;22.60;97.90
46440;DHT22;32138;50.966;6.968;2023-07-09T04:03:37;22.70;97.90
46440;DHT22;32138;50.966;6.968;2023-07-09T04:05:08;22.70;97.90
46440;DHT22;32138;50.966;6.968;2023-07-09T04:06:39;22.50;98.10
46440;DHT22;32138;50.966;6.968;2023-07-09T04:08:10;22.60;98.10
46440;DHT22;32138;50.966;6.968;2023-07-09T04:09:41;22.50;98.10
46440;DHT22;32138;50.966;6.968;2023-07-09T04:11:11;22.50;98.30
46440;DHT22;32138;50.966;6.968;2023-07-09T04:12:43;22.40;98.50
46440;DHT22;32138;50.966;6.968;2023-07-09T04:14:14;22.40;98.30
46440;DHT22;32138;50.966;6.968;2023-07-09T04:15:44;22.30;98.60
46440;DHT22;32138;50.966;6.968;2023-07-09T04:17:15;22.40;98.50
46440;DHT22;32138;50.966;6.968;2023-07-09T04:18:46;22.50;98.20
46440;DHT22;32138;50.966;6.968;2023-07-09T04:20:17;22.60;98.10
46440;DHT22;32138;50.966;6.968;2023-07-09T04:21:47;22.60;98.10
46440;DHT22;32138;50.966;6.968;2023-07-09T04:23:19;22.50;98.10
46440;DHT22;32138;50.966;6.968;2023-07-09T04:24:50;22.50;98.10
46440;DHT22;32138;50.966;6.968;2023-07-09T04:26:22;22.60;98.10
46440;DHT22;32138;50.966;6.968;2023-07-09T04:27:53;22.40;98.60
46440;DHT22;32138;50.966;6.968;2023-07-09T04:29:24;22.40;98.50
46440;DHT22;32138;50.966;6.968;2023-07-09T04:30:55;22.60;98.10
46440;DHT22;32138;50.966;6.968;2023-07-09T04:32:26;22.60;98.00
46440;DHT22;32138;50.966;6.968;2023-07-09T04:33:57;22.60;98.10
46440;DHT22;32138;50.966;6.968;2023-07-09T04:35:27;22.50;98.00
46440;DHT22;32138;50.966;6.968;2023-07-09T04:36:58;22.60;98.00
46440;DHT22;32138;50.966;6.968;2023-07-09T04:38:29;22.50;98.10
46440;DHT22;32138;50.966;6.968;2023-07-09T04:40:00;22.40;98.20
46440;DHT22;32138;50.966;6.968;2023-07-09T04:41:31;22.50;98.20
46440;DHT22;32138;50.966;6.968;2023-07-09T04:43:02;22.50;98.30
46440;DHT22;32138;50.966;6.968;2023-07-09T04:44:32;22.30;98.50
46440;DHT22;32138;50.966;6.968;2023-07-09T04:46:03;22.40;98.40
46440;DHT22;32138;50.966;6.968;2023-07-09T04:47:34;22.40;98.30
46440;DHT22;32138;50.966;6.968;2023-07-09T04:49:05;22.50;98.20
46440;DHT22;32138;50.966;6.968;2023-07-09T04:50:36;22.40;98.40
46440;DHT22;32138;50.966;6.968;2023-07-09T04:52:07;22.40;98.40
46440;DHT22;32138;50.966;6.968;2023-07-09T04:53:41;22.40;98.60
46440;DHT22;32138;50.966;6.968;2023-07-09T04:55:12;22.50;98.30
46440;DHT22;32138;50.966;6.968;2023-07-09T04:56:43;22.50;98.30
46440;DHT22;32138;50.966;6.968;2023-07-09T04:58:15;22.60;98.00
46440;DHT22;32138;50.966;6.968;2023-07-09T04:59:46;22.60;97.90
46440;DHT22;32138;50.966;6.968;2023-07-09T05:01:17;22.50;98.20
46440;DHT22;32138;50.966;6.968;2023-07-09T05:02:48;22.50;98.30
46440;DHT22;32138;50.966;6.968;2023-07-09T05:04:19;22.40;98.50
46440;DHT22;32138;50.966;6.968;2023-07-09T05:05:50;22.40;98.30
46440;DHT22;32138;50.966;6.968;2023-07-09T05:07:21;22.50;98.30
46440;DHT22;32138;50.966;6.968;2023-07-09T05:08:51;22.50;98.30
46440;DHT22;32138;50.966;6.968;2023-07-09T05:10:22;22.50;98.20
46440;DHT22;32138;50.966;6.968;2023-07-09T05:11:53;22.60;98.20
46440;DHT22;32138;50.966;6.968;2023-07-09T05:13:24;22.70;98.10
46440;DHT22;32138;50.966;6.968;2023-07-09T05:14:55;22.60;98.20
46440;DHT22;32138;50.966;6.968;2023-07-09T05:16:30;22.60;98.20
46440;DHT22;32138;50.966;6.968;2023-07-09T05:18:00;22.70;98.00
46440;DHT22;32138;50.966;6.968;2023-07-09T05:19:31;22.60;98.00
46440;DHT22;32138;50.966;6.968;2023-07-09T05:21:02;22.70;98.00
46440;DHT22;32138;50.966;6.968;2023-07-09T05:22:33;22.70;98.10
46440;DHT22;32138;50.966;6.968;2023-07-09T05:24:04;22.70;98.00
46440;DHT22;32138;50.966;6.968;2023-07-09T05:25:36;22.70;97.90
46440;DHT22;32138;50.966;6.968;2023-07-09T05:27:07;22.70;97.90
46440;DHT22;32138;50.966;6.968;2023-07-09T05:28:37;22.70;97.90
46440;DHT22;32138;50.966;6.968;2023-07-09T05:30:08;23.00;97.70
46440;DHT22;32138;50.966;6.968;2023-07-09T05:31:39;23.00;97.50
46440;DHT22;32138;50.966;6.968;2023-07-09T05:33:12;23.00;97.50
46440;DHT22;32138;50.966;6.968;2023-07-09T05:34:42;23.00;97.60
46440;DHT22;32138;50.966;6.968;2023-07-09T05:36:13;22.90;97.70
46440;DHT22;32138;50.966;6.968;2023-07-09T05:37:46;22.90;97.70
46440;DHT22;32138;50.966;6.968;2023-07-09T05:39:16;23.00;97.60
46440;DHT22;32138;50.966;6.968;2023-07-09T05:40:47;23.00;97.60
46440;DHT22;32138;50.966;6.968;2023-07-09T05:42:19;23.00;97.50
46440;DHT22;32138;50.966;6.968;2023-07-09T05:43:51;23.10;97.40
46440;DHT22;32138;50.966;6.968;2023-07-09T05:45:22;23.10;97.50
46440;DHT22;32138;50.966;6.968;2023-07-09T05:46:53;23.00;97.50
46440;DHT22;32138;50.966;6.968;2023-07-09T05:48:24;23.10;97.40
46440;DHT22;32138;50.966;6.968;2023-07-09T05:49:55;23.10;97.40
46440;DHT22;32138;50.966;6.968;2023-07-09T05:51:25;23.10;97.30
46440;DHT22;32138;50.966;6.968;2023-07-09T05:52:57;23.00;97.40
46440;DHT22;32138;50.966;6.968;2023-07-09T05:54:28;23.00;97.50
46440;DHT22;32138;50.966;6.968;2023-07-09T05:55:59;23.00;97.30
46440;DHT22;32138;50.966;6.968;2023-07-09T05:57:29;23.20;97.30
46440;DHT22;32138;50.966;6.968;2023-07-09T05:59:01;23.30;97.20
46440;DHT22;32138;50.966;6.968;2023-07-09T06:00:31;23.30;97.00
46440;DHT22;32138;50.966;6.968;2023-07-09T06:02:02;23.40;97.00
46440;DHT22;32138;50.966;6.968;2023-07-09T06:03:33;23.50;96.90
46440;DHT22;32138;50.966;6.968;2023-07-09T06:05:05;23.50;96.70
46440;DHT22;32138;50.966;6.968;2023-07-09T06:06:40;23.60;96.50
46440;DHT22;32138;50.966;6.968;2023-07-09T06:08:12;23.60;96.60
46440;DHT22;32138;50.966;6.968;2023-07-09T06:09:44;23.60;96.50
46440;DHT22;32138;50.966;6.968;2023-07-09T06:11:16;23.60;96.40
46440;DHT22;32138;50.966;6.968;2023-07-09T06:12:48;23.60;96.20
46440;DHT22;32138;50.966;6.968;2023-07-09T06:14:19;23.60;96.40
46440;DHT22;32138;50.966;6.968;2023-07-09T06:15:51;23.70;96.20
46440;DHT22;32138;50.966;6.968;2023-07-09T06:17:23;23.80;96.00
46440;DHT22;32138;50.966;6.968;2023-07-09T06:18:54;23.80;96.00
46440;DHT22;32138;50.966;6.968;2023-07-09T06:20:25;23.80;96.20
46440;DHT22;32138;50.966;6.968;2023-07-09T06:21:56;23.90;95.80
46440;DHT22;32138;50.966;6.968;2023-07-09T06:23:27;23.90;95.80
46440;DHT22;32138;50.966;6.968;2023-07-09T06:24:59;24.00;95.70
46440;DHT22;32138;50.966;6.968;2023-07-09T06:26:30;24.00;95.60
46440;DHT22;32138;50.966;6.968;2023-07-09T06:28:01;24.00;95.60
46440;DHT22;32138;50.966;6.968;2023-07-09T06:29:32;24.10;95.50
46440;DHT22;32138;50.966;6.968;2023-07-09T06:31:03;24.20;95.50
46440;DHT22;32138;50.966;6.968;2023-07-09T06:32:33;24.30;95.70
46440;DHT22;32138;50.966;6.968;2023-07-09T06:34:04;24.30;95.20
46440;DHT22;32138;50.966;6.968;2023-07-09T06:35:36;24.30;95.20
46440;DHT22;32138;50.966;6.968;2023-07-09T06:37:07;24.30;95.20
46440;DHT22;32138;50.966;6.968;2023-07-09T06:38:38;24.30;95.30
46440;DHT22;32138;50.966;6.968;2023-07-09T06:40:09;24.40;95.40
46440;DHT22;32138;50.966;6.968;2023-07-09T06:41:40;24.50;95.10
46440;DHT22;32138;50.966;6.968;2023-07-09T06:43:11;24.40;95.00
46440;DHT22;32138;50.966;6.968;2023-07-09T06:44:42;24.50;95.00
46440;DHT22;32138;50.966;6.968;2023-07-09T06:46:14;24.60;94.90
46440;DHT22;32138;50.966;6.968;2023-07-09T06:47:45;24.70;94.90
46440;DHT22;32138;50.966;6.968;2023-07-09T06:49:16;24.80;94.60
46440;DHT22;32138;50.966;6.968;2023-07-09T06:50:47;24.80;94.70
46440;DHT22;32138;50.966;6.968;2023-07-09T06:52:18;24.80;94.30
46440;DHT22;32138;50.966;6.968;2023-07-09T06:53:49;24.80;94.40
46440;DHT22;32138;50.966;6.968;2023-07-09T06:55:21;24.80;94.50
46440;DHT22;32138;50.966;6.968;2023-07-09T06:56:52;24.90;94.40
46440;DHT22;32138;50.966;6.968;2023-07-09T06:58:23;24.90;94.30
46440;DHT22;32138;50.966;6.968;2023-07-09T06:59:55;25.00;94.20
46440;DHT22;32138;50.966;6.968;2023-07-09T07:01:26;25.00;94.20
46440;DHT22;32138;50.966;6.968;2023-07-09T07:02:57;25.00;94.20
46440;DHT22;32138;50.966;6.968;2023-07-09T07:04:28;25.10;94.20
46440;DHT22;32138;50.966;6.968;2023-07-09T07:05:58;25.20;94.00
46440;DHT22;32138;50.966;6.968;2023-07-09T07:07:29;25.10;94.20
46440;DHT22;32138;50.966;6.968;2023-07-09T07:09:00;25.30;94.20
46440;DHT22;32138;50.966;6.968;2023-07-09T07:10:31;25.40;93.80
46440;DHT22;32138;50.966;6.968;2023-07-09T07:12:01;25.40;94.10
46440;DHT22;32138;50.966;6.968;2023-07-09T07:13:37;25.50;93.80
46440;DHT22;32138;50.966;6.968;2023-07-09T07:15:10;25.50;93.90
46440;DHT22;32138;50.966;6.968;2023-07-09T07:16:42;25.40;93.70
46440;DHT22;32138;50.966;6.968;2023-07-09T07:18:12;25.40;93.60
46440;DHT22;32138;50.966;6.968;2023-07-09T07:19:43;25.50;93.70
46440;DHT22;32138;50.966;6.968;2023-07-09T07:21:14;25.70;93.60
46440;DHT22;32138;50.966;6.968;2023-07-09T07:22:45;25.70;93.40
46440;DHT22;32138;50.966;6.968;2023-07-09T07:24:16;25.70;93.40
46440;DHT22;32138;50.966;6.968;2023-07-09T07:25:47;25.80;93.50
46440;DHT22;32138;50.966;6.968;2023-07-09T07:27:17;25.70;93.40
46440;DHT22;32138;50.966;6.968;2023-07-09T07:28:48;25.70;93.30
46440;DHT22;32138;50.966;6.968;2023-07-09T07:30:20;25.70;93.30
46440;DHT22;32138;50.966;6.968;2023-07-09T07:31:51;25.70;93.30
46440;DHT22;32138;50.966;6.968;2023-07-09T07:33:22;25.80;93.20
46440;DHT22;32138;50.966;6.968;2023-07-09T07:34:52;25.90;93.50
46440;DHT22;32138;50.966;6.968;2023-07-09T07:36:25;26.00;93.30
46440;DHT22;32138;50.966;6.968;2023-07-09T07:37:55;26.10;93.00
46440;DHT22;32138;50.966;6.968;2023-07-09T07:39:26;26.20;92.90
46440;DHT22;32138;50.966;6.968;2023-07-09T07:40:57;26.10;92.90
46440;DHT22;32138;50.966;6.968;2023-07-09T07:42:28;26.20;92.90
46440;DHT22;32138;50.966;6.968;2023-07-09T07:43:58;26.10;92.80
46440;DHT22;32138;50.966;6.968;2023-07-09T07:45:30;26.20;93.10
46440;DHT22;32138;50.966;6.968;2023-07-09T07:47:00;26.30;92.60
46440;DHT22;32138;50.966;6.968;2023-07-09T07:48:31;26.30;92.60
46440;DHT22;32138;50.966;6.968;2023-07-09T07:50:02;26.40;92.90
46440;DHT22;32138;50.966;6.968;2023-07-09T07:51:33;26.50;92.50
46440;DHT22;32138;50.966;6.968;2023-07-09T07:53:04;26.50;92.40
46440;DHT22;32138;50.966;6.968;2023-07-09T07:54:35;26.70;92.50
46440;DHT22;32138;50.966;6.968;2023-07-09T07:56:06;26.70;92.40
46440;DHT22;32138;50.966;6.968;2023-07-09T07:57:37;26.80;92.30
46440;DHT22;32138;50.966;6.968;2023-07-09T07:59:08;26.80;92.40
46440;DHT22;32138;50.966;6.968;2023-07-09T08:00:40;26.90;92.40
46440;DHT22;32138;50.966;6.968;2023-07-09T08:02:13;27.00;92.30
46440;DHT22;32138;50.966;6.968;2023-07-09T08:03:44;27.00;92.10
46440;DHT22;32138;50.966;6.968;2023-07-09T08:05:15;27.10;91.70
46440;DHT22;32138;50.966;6.968;2023-07-09T08:06:46;27.10;91.60
46440;DHT22;32138;50.966;6.968;2023-07-09T08:08:17;27.00;91.50
46440;DHT22;32138;50.966;6.968;2023-07-09T08:09:48;27.00;91.60
46440;DHT22;32138;50.966;6.968;2023-07-09T08:11:19;27.00;91.70
46440;DHT22;32138;50.966;6.968;2023-07-09T08:12:49;27.10;91.80
46440;DHT22;32138;50.966;6.968;2023-07-09T08:14:21;27.10;91.90
46440;DHT22;32138;50.966;6.968;2023-07-09T08:15:51;27.20;91.90
46440;DHT22;32138;50.966;6.968;2023-07-09T08:17:22;27.30;91.70
46440;DHT22;32138;50.966;6.968;2023-07-09T08:18:53;27.30;91.30
46440;DHT22;32138;50.966;6.968;2023-07-09T08:20:24;27.30;91.30
46440;DHT22;32138;50.966;6.968;2023-07-09T08:21:55;27.30;91.30
46440;DHT22;32138;50.966;6.968;2023-07-09T08:23:26;27.40;91.30
46440;DHT22;32138;50.966;6.968;2023-07-09T08:24:57;27.50;91.30
46440;DHT22;32138;50.966;6.968;2023-07-09T08:26:27;27.50;91.10
46440;DHT22;32138;50.966;6.968;2023-07-09T08:27:58;27.40;91.10
46440;DHT22;32138;50.966;6.968;2023-07-09T08:29:29;27.40;91.30
46440;DHT22;32138;50.966;6.968;2023-07-09T08:31:00;27.40;91.30
46440;DHT22;32138;50.966;6.968;2023-07-09T08:32:31;27.50;91.50
46440;DHT22;32138;50.966;6.968;2023-07-09T08:34:02;27.60;91.40
46440;DHT22;32138;50.966;6.968;2023-07-09T08:35:33;27.70;91.10
46440;DHT22;32138;50.966;6.968;2023-07-09T08:37:04;27.70;90.90
46440;DHT22;32138;50.966;6.968;2023-07-09T08:38:36;27.70;90.90
46440;DHT22;32138;50.966;6.968;2023-07-09T08:40:13;27.90;91.00
46440;DHT22;32138;50.966;6.968;2023-07-09T08:41:49;28.10;91.30
46440;DHT22;32138;50.966;6.968;2023-07-09T08:43:39;28.20;91.20
46440;DHT22;32138;50.966;6.968;2023-07-09T08:45:34;28.30;90.20
46440;DHT22;32138;50.966;6.968;2023-07-09T08:49:20;28.40;89.10
46440;DHT22;32138;50.966;6.968;2023-07-09T08:50:57;28.30;88.60
46440;DHT22;32138;50.966;6.968;2023-07-09T08:52:34;28.30;88.60
46440;DHT22;32138;50.966;6.968;2023-07-09T08:54:16;28.40;88.80
46440;DHT22;32138;50.966;6.968;2023-07-09T08:55:56;28.50;88.60
46440;DHT22;32138;50.966;6.968;2023-07-09T08:57:31;28.50;87.90
46440;DHT22;32138;50.966;6.968;2023-07-09T08:59:07;28.50;88.20
46440;DHT22;32138;50.966;6.968;2023-07-09T09:00:56;28.50;87.70
46440;DHT22;32138;50.966;6.968;2023-07-09T09:02:33;28.50;87.50
46440;DHT22;32138;50.966;6.968;2023-07-09T09:04:25;28.60;87.40
46440;DHT22;32138;50.966;6.968;2023-07-09T09:05:58;28.70;87.60
46440;DHT22;32138;50.966;6.968;2023-07-09T09:07:41;28.70;87.40
46440;DHT22;32138;50.966;6.968;2023-07-09T09:09:24;28.80;88.10
46440;DHT22;32138;50.966;6.968;2023-07-09T09:13:17;29.00;86.80
46440;DHT22;32138;50.966;6.968;2023-07-09T09:15:00;29.10;87.10
46440;DHT22;32138;50.966;6.968;2023-07-09T09:16:39;29.20;86.90
46440;DHT22;32138;50.966;6.968;2023-07-09T09:18:23;29.10;86.50
46440;DHT22;32138;50.966;6.968;2023-07-09T09:20:17;29.20;87.00
46440;DHT22;32138;50.966;6.968;2023-07-09T09:21:58;29.30;86.50
46440;DHT22;32138;50.966;6.968;2023-07-09T09:23:46;29.30;86.20
46440;DHT22;32138;50.966;6.968;2023-07-09T09:25:32;29.40;86.20
46440;DHT22;32138;50.966;6.968;2023-07-09T09:27:04;29.40;86.40
46440;DHT22;32138;50.966;6.968;2023-07-09T09:28:35;29.50;86.20
46440;DHT22;32138;50.966;6.968;2023-07-09T09:30:24;29.30;86.30
46440;DHT22;32138;50.966;6.968;2023-07-09T09:31:57;29.50;85.00
46440;DHT22;32138;50.966;6.968;2023-07-09T09:33:40;29.50;84.80
46440;DHT22;32138;50.966;6.968;2023-07-09T09:35:14;29.40;85.10
46440;DHT22;32138;50.966;6.968;2023-07-09T09:36:47;29.70;85.40
46440;DHT22;32138;50.966;6.968;2023-07-09T09:38:21;29.70;85.50
46440;DHT22;32138;50.966;6.968;2023-07-09T09:39:52;29.50;85.50
46440;DHT22;32138;50.966;6.968;2023-07-09T09:41:25;29.50;85.60
46440;DHT22;32138;50.966;6.968;2023-07-09T09:43:01;29.60;85.10
46440;DHT22;32138;50.966;6.968;2023-07-09T09:44:33;29.60;85.60
46440;DHT22;32138;50.966;6.968;2023-07-09T09:46:06;29.80;86.10
46440;DHT22;32138;50.966;6.968;2023-07-09T09:47:37;30.10;85.20
46440;DHT22;32138;50.966;6.968;2023-07-09T09:49:10;30.00;84.00